createdAt,value
2018-05-24T00:02:05.453Z,1.80
2018-05-24T00:04:33.083Z,5.40
2018-05-24T00:07:00.679Z,2.10
2018-05-24T00:09:29.055Z,6.10
2018-05-24T00:11:56.675Z,2.40
2018-05-24T00:14:24.236Z,2.70
2018-05-24T00:16:51.866Z,2.90
2018-05-24T00:19:19.475Z,3.83
2018-05-24T00:21:47.071Z,5.27
2018-05-24T00:24:14.647Z,2.20
2018-05-24T00:26:42.252Z,1.60
2018-05-24T00:29:10.671Z,1.53
2018-05-24T00:31:39.044Z,2.17
2018-05-24T00:34:07.405Z,2.43
2018-05-24T00:36:34.975Z,1.67
2018-05-24T00:39:03.371Z,5.10
2018-05-24T00:41:31.749Z,6.70
2018-05-24T00:44:00.102Z,1.47
2018-05-24T00:46:27.715Z,2.60
2018-05-24T00:48:55.312Z,1.60
2018-05-24T00:51:22.905Z,1.63
2018-05-24T00:53:51.259Z,2.83
2018-05-24T00:56:18.876Z,2.07
2018-05-24T00:58:46.448Z,3.97
2018-05-24T01:01:14.044Z,3.80
2018-05-24T01:03:41.668Z,2.43
2018-05-24T01:06:09.236Z,1.83
2018-05-24T01:08:36.894Z,5.20
2018-05-24T01:11:04.467Z,2.87
2018-05-24T01:13:32.057Z,2.50
2018-05-24T01:15:59.665Z,2.33
2018-05-24T01:18:27.238Z,3.17
2018-05-24T01:20:54.848Z,1.70
2018-05-24T01:23:23.217Z,1.30
2018-05-24T01:25:50.865Z,5.80
2018-05-24T01:28:18.467Z,3.33
2018-05-24T01:30:46.069Z,2.10
2018-05-24T01:33:13.686Z,4.30
2018-05-24T01:35:42.018Z,1.53
2018-05-24T01:38:09.659Z,2.83
2018-05-24T01:40:37.288Z,2.97
2018-05-24T01:43:05.624Z,3.37
2018-05-24T01:45:33.198Z,6.20
2018-05-24T01:48:00.794Z,5.80
2018-05-24T01:50:28.442Z,6.10
2018-05-24T01:52:56.832Z,9.50
2018-05-24T01:55:24.468Z,2.03
2018-05-24T01:57:52.080Z,2.57
2018-05-24T02:00:19.717Z,2.70
2018-05-24T02:02:47.262Z,4.30
2018-05-24T02:05:15.614Z,4.67
2018-05-24T02:07:43.262Z,1.70
2018-05-24T02:10:10.933Z,6.17
2018-05-24T02:12:38.492Z,1.87
2018-05-24T02:15:06.104Z,4.23
2018-05-24T02:17:33.679Z,3.97
2018-05-24T02:20:01.272Z,3.43
2018-05-24T02:22:28.892Z,2.73
2018-05-24T02:24:56.491Z,5.73
2018-05-24T02:27:24.084Z,7.03
2018-05-24T02:29:51.746Z,4.63
2018-05-24T02:32:19.333Z,1.77
2018-05-24T02:34:46.977Z,2.30
2018-05-24T02:37:14.591Z,2.67
2018-05-24T02:39:42.164Z,3.23
2018-05-24T02:42:09.743Z,1.67
2018-05-24T02:44:37.375Z,1.90
2018-05-24T02:47:04.937Z,1.87
2018-05-24T02:49:32.531Z,2.40
2018-05-24T02:52:00.946Z,4.23
2018-05-24T02:54:28.542Z,2.90
2018-05-24T02:56:56.111Z,3.07
2018-05-24T02:59:23.710Z,3.90
2018-05-24T03:01:51.302Z,2.30
2018-05-24T03:04:19.177Z,2.77
2018-05-24T03:06:47.940Z,1.90
2018-05-24T03:09:15.564Z,4.53
2018-05-24T03:11:43.940Z,7.50
2018-05-24T03:14:11.602Z,6.43
2018-05-24T03:16:39.151Z,7.33
2018-05-24T03:19:06.747Z,2.80
2018-05-24T03:21:34.375Z,1.70
2018-05-24T03:24:01.974Z,6.47
2018-05-24T03:26:29.578Z,6.13
2018-05-24T03:28:57.194Z,3.00
2018-05-24T03:31:24.772Z,2.03
2018-05-24T03:33:52.418Z,5.47
2018-05-24T03:36:20.001Z,2.93
2018-05-24T03:38:47.605Z,3.30
2018-05-24T03:41:16.005Z,2.87
2018-05-24T03:43:44.433Z,2.90
2018-05-24T03:46:12.046Z,2.57
2018-05-24T03:48:40.403Z,3.60
2018-05-24T03:51:08.036Z,4.80
2018-05-24T03:53:35.634Z,3.70
2018-05-24T03:56:03.233Z,1.63
2018-05-24T03:58:30.821Z,1.97
2018-05-24T04:01:11.096Z,2.23
2018-05-24T04:03:49.557Z,2.40
2018-05-24T04:06:17.148Z,7.40
2018-05-24T04:08:44.723Z,4.47
2018-05-24T04:11:13.229Z,3.27
2018-05-24T04:13:40.820Z,2.40
2018-05-24T04:16:08.377Z,10.60
2018-05-24T04:18:35.964Z,4.53
2018-05-24T04:21:03.550Z,2.40
2018-05-24T04:23:31.148Z,4.03
2018-05-24T04:25:58.769Z,2.37
2018-05-24T04:28:26.372Z,2.00
2018-05-24T04:30:54.757Z,1.97
2018-05-24T04:33:22.390Z,4.53
2018-05-24T04:35:50.109Z,3.70
2018-05-24T04:38:17.716Z,1.67
2018-05-24T04:40:45.328Z,2.60
2018-05-24T04:43:12.887Z,3.43
2018-05-24T04:45:40.447Z,5.77
2018-05-24T04:48:08.082Z,1.67
2018-05-24T04:50:35.664Z,4.30
2018-05-24T04:53:03.299Z,3.83
2018-05-24T04:55:31.708Z,4.57
2018-05-24T04:57:59.315Z,5.33
2018-05-24T05:00:26.973Z,4.47
2018-05-24T05:02:54.604Z,3.20
2018-05-24T05:05:22.804Z,9.20
2018-05-24T05:07:50.421Z,2.77
2018-05-24T05:10:18.090Z,2.80
2018-05-24T05:12:45.705Z,3.70
2018-05-24T05:15:14.090Z,8.77
2018-05-24T05:17:41.943Z,5.27
2018-05-24T05:20:09.517Z,4.53
2018-05-24T05:22:37.082Z,3.40
2018-05-24T05:25:05.543Z,3.30
2018-05-24T05:27:33.060Z,3.80
2018-05-24T05:30:00.714Z,3.77
2018-05-24T05:32:28.342Z,9.43
2018-05-24T05:34:55.958Z,2.73
2018-05-24T05:37:23.558Z,2.60
2018-05-24T05:39:51.928Z,4.70
2018-05-24T05:42:19.495Z,3.73
2018-05-24T05:44:47.090Z,2.93
2018-05-24T05:47:14.731Z,3.23
2018-05-24T05:49:42.312Z,2.07
2018-05-24T05:52:09.998Z,6.40
2018-05-24T05:54:37.722Z,14.13
2018-05-24T05:57:05.326Z,4.53
2018-05-24T05:59:32.918Z,3.97
2018-05-24T06:02:00.643Z,3.80
2018-05-24T06:04:28.237Z,5.03
2018-05-24T06:06:56.215Z,3.57
2018-05-24T06:09:23.825Z,4.20
2018-05-24T06:11:51.444Z,7.90
2018-05-24T06:14:19.791Z,4.97
2018-05-24T06:16:47.418Z,4.60
2018-05-24T06:19:14.989Z,7.50
2018-05-24T06:21:42.593Z,3.93
2018-05-24T06:24:10.211Z,7.17
2018-05-24T06:26:37.855Z,3.10
2018-05-24T06:29:05.425Z,4.10
2018-05-24T06:31:33.041Z,10.60
2018-05-24T06:34:00.615Z,7.03
2018-05-24T06:36:28.246Z,4.03
2018-05-24T06:38:56.619Z,4.10
2018-05-24T06:41:24.214Z,13.83
2018-05-24T06:43:51.811Z,7.17
2018-05-24T06:46:19.447Z,10.13
2018-05-24T06:48:47.079Z,3.27
2018-05-24T06:51:14.703Z,6.13
2018-05-24T06:53:42.354Z,4.30
2018-05-24T06:56:10.684Z,3.83
2018-05-24T06:58:38.306Z,3.70
2018-05-24T07:01:05.915Z,7.03
2018-05-24T07:03:33.507Z,4.43
2018-05-24T07:06:01.216Z,4.00
2018-05-24T07:08:28.792Z,7.70
2018-05-24T07:10:56.399Z,7.17
2018-05-24T07:13:24.019Z,7.93
2018-05-24T07:15:51.591Z,8.43
2018-05-24T07:18:19.951Z,10.37
2018-05-24T07:20:47.517Z,5.50
2018-05-24T07:23:15.186Z,6.35
2018-05-24T07:25:43.590Z,7.43
2018-05-24T07:28:11.176Z,7.33
2018-05-24T07:30:38.802Z,8.10
2018-05-24T07:33:06.367Z,8.37
2018-05-24T07:35:33.985Z,5.80
2018-05-24T07:38:01.570Z,7.80
2018-05-24T07:40:29.925Z,5.10
2018-05-24T07:42:57.518Z,6.97
2018-05-24T07:45:25.508Z,6.50
2018-05-24T07:47:53.933Z,8.23
2018-05-24T07:50:21.526Z,6.03
2018-05-24T07:52:49.197Z,6.63
2018-05-24T07:55:16.865Z,8.53
2018-05-24T07:57:44.500Z,3.90
2018-05-24T08:00:12.892Z,4.37
2018-05-24T08:02:41.247Z,13.63
2018-05-24T08:05:08.849Z,8.90
2018-05-24T08:07:36.469Z,6.20
2018-05-24T08:10:04.060Z,7.97
2018-05-24T08:12:32.385Z,8.70
2018-05-24T08:15:00.746Z,6.50
2018-05-24T08:17:28.309Z,6.40
2018-05-24T08:19:55.891Z,8.40
2018-05-24T08:22:23.600Z,10.37
2018-05-24T08:24:51.138Z,8.30
2018-05-24T08:27:18.782Z,7.10
2018-05-24T08:29:46.438Z,9.13
2018-05-24T08:32:14.063Z,8.50
2018-05-24T08:34:41.625Z,10.57
2018-05-24T08:37:09.197Z,5.47
2018-05-24T08:39:36.781Z,8.60
2018-05-24T08:42:04.518Z,5.90
2018-05-24T08:44:32.067Z,18.33
2018-05-24T08:46:59.708Z,8.20
2018-05-24T08:49:27.248Z,9.43
2018-05-24T08:51:55.647Z,8.40
2018-05-24T08:54:23.995Z,10.10
2018-05-24T08:56:51.560Z,6.93
2018-05-24T08:59:19.177Z,6.33
2018-05-24T09:01:46.755Z,9.70
2018-05-24T09:04:14.419Z,13.00
2018-05-24T09:06:42.053Z,6.63
2018-05-24T09:09:09.723Z,7.40
2018-05-24T09:11:37.305Z,7.37
2018-05-24T09:14:04.903Z,7.80
2018-05-24T09:16:33.235Z,7.17
2018-05-24T09:19:00.815Z,7.60
2018-05-24T09:21:28.417Z,7.10
2018-05-24T09:23:56.028Z,7.13
2018-05-24T09:26:23.670Z,9.50
2018-05-24T09:28:51.277Z,11.73
2018-05-24T09:31:18.849Z,6.77
2018-05-24T09:33:47.164Z,7.80
2018-05-24T09:36:14.772Z,8.43
2018-05-24T09:38:42.308Z,7.30
2018-05-24T09:41:09.872Z,7.73
2018-05-24T09:43:37.450Z,8.60
2018-05-24T09:46:05.030Z,7.27
2018-05-24T09:48:32.651Z,7.27
2018-05-24T09:51:00.253Z,16.00
2018-05-24T09:53:28.634Z,12.17
2018-05-24T09:55:57.001Z,11.50
2018-05-24T09:58:25.358Z,8.50
2018-05-24T10:00:52.951Z,7.60
2018-05-24T10:03:21.290Z,10.03
2018-05-24T10:05:48.900Z,8.53
2018-05-24T10:08:16.545Z,7.07
2018-05-24T10:10:44.899Z,7.27
2018-05-24T10:13:12.517Z,9.83
2018-05-24T10:15:40.090Z,7.73
2018-05-24T10:18:07.650Z,6.50
2018-05-24T10:20:35.254Z,12.90
2018-05-24T10:23:03.643Z,6.20
2018-05-24T10:25:31.998Z,10.20
2018-05-24T10:27:59.629Z,9.90
2018-05-24T10:30:27.278Z,13.97
2018-05-24T10:32:54.953Z,8.13
2018-05-24T10:35:23.309Z,8.83
2018-05-24T10:37:50.871Z,10.60
2018-05-24T10:40:18.465Z,11.97
2018-05-24T10:42:46.805Z,10.50
2018-05-24T10:45:14.480Z,8.83
2018-05-24T10:47:42.278Z,10.03
2018-05-24T10:50:09.938Z,10.37
2018-05-24T10:52:38.308Z,8.33
2018-05-24T10:55:05.940Z,15.10
2018-05-24T10:57:33.577Z,9.40
2018-05-24T11:00:01.209Z,12.63
2018-05-24T11:02:28.906Z,13.93
2018-05-24T11:04:57.360Z,9.53
2018-05-24T11:07:24.952Z,10.80
2018-05-24T11:09:52.519Z,9.83
2018-05-24T11:12:20.114Z,10.40
2018-05-24T11:14:47.743Z,9.77
2018-05-24T11:17:15.325Z,11.80
2018-05-24T11:19:43.013Z,10.10
2018-05-24T11:22:10.602Z,10.60
2018-05-24T11:24:38.221Z,11.00
2018-05-24T11:27:05.810Z,8.73
2018-05-24T11:29:34.172Z,13.20
2018-05-24T11:32:01.825Z,13.23
2018-05-24T11:34:29.435Z,12.03
2018-05-24T11:36:57.091Z,10.83
2018-05-24T11:39:24.707Z,9.10
2018-05-24T11:41:52.296Z,8.80
2018-05-24T11:44:20.666Z,14.13
2018-05-24T11:46:48.244Z,13.80
2018-05-24T11:49:15.874Z,10.57
2018-05-24T11:51:43.474Z,10.30
2018-05-24T11:54:11.847Z,13.90
2018-05-24T11:56:39.431Z,11.27
2018-05-24T11:59:07.044Z,9.10
2018-05-24T12:01:34.708Z,9.60
2018-05-24T12:04:02.304Z,10.17
2018-05-24T12:06:30.654Z,9.47
2018-05-24T12:08:59.066Z,8.70
2018-05-24T12:11:26.653Z,11.30
2018-05-24T12:13:54.238Z,11.93
2018-05-24T12:16:21.832Z,7.87
2018-05-24T12:18:50.173Z,12.50
2018-05-24T12:21:17.774Z,10.03
2018-05-24T12:23:46.136Z,10.23
2018-05-24T12:26:13.716Z,12.47
2018-05-24T12:28:41.313Z,13.40
2018-05-24T12:31:08.985Z,10.17
2018-05-24T12:33:36.667Z,11.07
2018-05-24T12:36:05.315Z,14.53
2018-05-24T12:38:32.922Z,9.73
2018-05-24T12:41:00.572Z,11.97
2018-05-24T12:43:28.167Z,12.77
2018-05-24T12:45:55.798Z,11.30
2018-05-24T12:48:23.415Z,11.37
2018-05-24T12:50:51.038Z,16.30
2018-05-24T12:53:18.673Z,11.00
2018-05-24T12:55:46.295Z,12.70
2018-05-24T12:58:13.898Z,12.90
2018-05-24T13:00:41.529Z,12.17
2018-05-24T13:03:09.170Z,14.33
2018-05-24T13:05:36.762Z,16.97
2018-05-24T13:08:04.345Z,10.23
2018-05-24T13:10:31.985Z,10.23
2018-05-24T13:12:59.605Z,11.93
2018-05-24T13:15:27.202Z,10.83
2018-05-24T13:17:54.803Z,11.20
2018-05-24T13:20:22.410Z,11.77
2018-05-24T13:22:49.976Z,12.73
2018-05-24T13:25:17.591Z,19.67
2018-05-24T13:27:45.910Z,16.90
2018-05-24T13:30:13.515Z,14.00
2018-05-24T13:32:41.114Z,20.30
2018-05-24T13:35:08.679Z,17.80
2018-05-24T13:37:36.289Z,19.37
2018-05-24T13:40:03.880Z,22.00
2018-05-24T13:42:32.258Z,12.70
2018-05-24T13:45:00.625Z,15.73
2018-05-24T13:47:28.213Z,30.93
2018-05-24T13:49:55.820Z,11.17
2018-05-24T13:52:23.441Z,18.63
2018-05-24T13:54:52.873Z,14.60
2018-05-24T13:57:32.217Z,15.07
2018-05-24T14:00:00.598Z,14.93
2018-05-24T14:02:28.200Z,13.10
2018-05-24T14:04:56.550Z,14.77
2018-05-24T14:07:24.153Z,11.40
2018-05-24T14:09:51.759Z,11.67
2018-05-24T14:12:19.370Z,11.00
2018-05-24T14:14:47.459Z,12.87
2018-05-24T14:17:15.040Z,12.23
2018-05-24T14:19:42.685Z,12.80
2018-05-24T14:22:10.374Z,11.63
2018-05-24T14:24:38.038Z,15.03
2018-05-24T14:27:05.657Z,12.43
2018-05-24T14:29:33.977Z,15.40
2018-05-24T14:32:01.699Z,14.97
2018-05-24T14:34:29.301Z,12.77
2018-05-24T14:36:56.958Z,14.90
2018-05-24T14:39:24.624Z,12.37
2018-05-24T14:41:52.276Z,13.93
2018-05-24T14:44:19.885Z,13.13
2018-05-24T14:46:48.306Z,14.20
2018-05-24T14:49:15.908Z,15.57
2018-05-24T14:51:43.532Z,14.60
2018-05-24T14:54:11.135Z,15.20
2018-05-24T14:56:38.811Z,14.73
2018-05-24T14:59:07.171Z,14.80
2018-05-24T15:01:34.775Z,14.10
2018-05-24T15:04:02.393Z,15.67
2018-05-24T15:06:29.979Z,13.13
2018-05-24T15:08:57.630Z,14.07
2018-05-24T15:11:26.022Z,18.03
2018-05-24T15:13:53.722Z,15.50
2018-05-24T15:16:21.308Z,14.87
2018-05-24T15:18:48.946Z,13.10
2018-05-24T15:21:16.572Z,14.50
2018-05-24T15:23:44.238Z,21.83
2018-05-24T15:26:11.889Z,16.03
2018-05-24T15:28:40.307Z,15.97
2018-05-24T15:31:08.168Z,17.03
2018-05-24T15:33:35.821Z,13.83
2018-05-24T15:36:03.466Z,20.53
2018-05-24T15:38:31.153Z,15.60
2018-05-24T15:40:58.818Z,16.57
2018-05-24T15:43:26.489Z,15.27
2018-05-24T15:45:54.113Z,17.00
2018-05-24T15:48:21.781Z,13.80
2018-05-24T15:50:49.522Z,13.83
2018-05-24T15:53:17.214Z,14.67
2018-05-24T15:55:44.938Z,16.10
2018-05-24T15:58:12.550Z,14.27
2018-05-24T16:00:40.187Z,12.80
2018-05-24T16:03:08.612Z,18.50
2018-05-24T16:05:36.227Z,12.23
2018-05-24T16:08:04.656Z,13.57
2018-05-24T16:10:32.271Z,13.20
2018-05-24T16:12:59.882Z,14.80
2018-05-24T16:15:27.497Z,13.60
2018-05-24T16:17:55.186Z,17.17
2018-05-24T16:20:22.812Z,12.57
2018-05-24T16:22:50.510Z,11.80
2018-05-24T16:25:18.167Z,12.53
2018-05-24T16:27:45.802Z,13.37
2018-05-24T16:30:13.384Z,16.00
2018-05-24T16:32:40.987Z,16.17
2018-05-24T16:35:08.586Z,14.57
2018-05-24T16:37:36.964Z,14.90
2018-05-24T16:40:05.406Z,12.50
2018-05-24T16:42:33.055Z,14.50
2018-05-24T16:45:00.733Z,12.03
2018-05-24T16:47:29.305Z,15.47
2018-05-24T16:49:56.960Z,14.77
2018-05-24T16:52:24.586Z,14.97
2018-05-24T16:54:52.185Z,13.53
2018-05-24T16:57:19.833Z,13.73
2018-05-24T16:59:47.968Z,19.13
2018-05-24T17:02:15.575Z,14.00
2018-05-24T17:04:43.172Z,13.13
2018-05-24T17:07:10.794Z,12.70
2018-05-24T17:09:38.511Z,14.87
2018-05-24T17:12:06.216Z,12.97
2018-05-24T17:14:34.643Z,12.47
2018-05-24T17:17:02.209Z,15.53
2018-05-24T17:19:30.584Z,17.30
2018-05-24T17:21:58.250Z,15.53
2018-05-24T17:24:27.499Z,15.13
2018-05-24T17:26:55.135Z,12.80
2018-05-24T17:29:22.815Z,14.03
2018-05-24T17:31:50.454Z,12.47
2018-05-24T17:34:18.084Z,12.17
2018-05-24T17:36:45.678Z,12.40
2018-05-24T17:39:14.058Z,13.70
2018-05-24T17:41:41.736Z,12.87
2018-05-24T17:44:09.463Z,14.67
2018-05-24T17:46:37.142Z,14.27
2018-05-24T17:49:04.735Z,15.30
2018-05-24T17:51:32.358Z,14.50
2018-05-24T17:53:59.992Z,16.70
2018-05-24T17:56:27.624Z,14.77
2018-05-24T17:58:56.024Z,13.17
2018-05-24T18:01:23.701Z,14.00
2018-05-24T18:03:51.295Z,15.43
2018-05-24T18:06:18.911Z,15.53
2018-05-24T18:08:46.541Z,13.30
2018-05-24T18:11:14.132Z,12.87
2018-05-24T18:13:41.724Z,12.37
2018-05-24T18:16:09.345Z,13.93
2018-05-24T18:18:36.957Z,12.70
2018-05-24T18:21:04.561Z,13.80
2018-05-24T18:23:32.170Z,12.57
2018-05-24T18:26:00.556Z,14.37
2018-05-24T18:28:28.922Z,12.73
2018-05-24T18:30:57.302Z,21.30
2018-05-24T18:33:25.660Z,18.53
2018-05-24T18:35:53.290Z,13.37
2018-05-24T18:38:20.908Z,13.93
2018-05-24T18:40:48.575Z,12.73
2018-05-24T18:43:16.966Z,13.17
2018-05-24T18:45:44.584Z,13.83
2018-05-24T18:48:12.191Z,18.70
2018-05-24T18:50:39.857Z,16.63
2018-05-24T18:53:07.482Z,13.83
2018-05-24T18:55:35.884Z,14.77
2018-05-24T18:58:03.610Z,13.50
2018-05-24T19:00:31.207Z,13.57
2018-05-24T19:02:58.819Z,20.30
2018-05-24T19:05:26.430Z,16.30
2018-05-24T19:07:54.139Z,11.90
2018-05-24T19:10:21.814Z,14.10
2018-05-24T19:12:49.449Z,12.20
2018-05-24T19:15:17.003Z,12.43
2018-05-24T19:17:44.614Z,12.53
2018-05-24T19:20:12.198Z,13.90
2018-05-24T19:22:39.800Z,15.00
2018-05-24T19:25:07.393Z,13.10
2018-05-24T19:27:34.966Z,24.50
2018-05-24T19:30:02.589Z,12.57
2018-05-24T19:32:30.199Z,14.10
2018-05-24T19:34:57.829Z,12.67
2018-05-24T19:37:25.462Z,13.30
2018-05-24T19:39:53.071Z,12.40
2018-05-24T19:42:21.441Z,13.20
2018-05-24T19:44:49.204Z,13.63
2018-05-24T19:47:17.811Z,15.23
2018-05-24T19:49:45.469Z,18.03
2018-05-24T19:52:13.090Z,14.60
2018-05-24T19:54:40.721Z,15.60
2018-05-24T19:57:09.404Z,15.33
2018-05-24T19:59:37.019Z,14.73
2018-05-24T20:02:05.485Z,12.60
2018-05-24T20:04:33.108Z,14.20
2018-05-24T20:07:00.700Z,15.70
2018-05-24T20:09:28.308Z,12.40
2018-05-24T20:11:56.233Z,23.17
2018-05-24T20:14:23.848Z,12.57
2018-05-24T20:16:52.047Z,12.67
2018-05-24T20:19:19.653Z,11.60
2018-05-24T20:21:47.346Z,10.47
2018-05-24T20:24:14.955Z,10.27
2018-05-24T20:26:42.588Z,10.60
2018-05-24T20:29:10.158Z,10.80
2018-05-24T20:31:37.784Z,11.83
2018-05-24T20:34:05.426Z,14.90
2018-05-24T20:36:33.756Z,11.37
2018-05-24T20:39:01.635Z,12.30
2018-05-24T20:41:29.252Z,13.40
2018-05-24T20:43:56.919Z,12.33
2018-05-24T20:46:24.507Z,14.60
2018-05-24T20:48:52.171Z,12.30
2018-05-24T20:51:19.827Z,12.50
2018-05-24T20:53:47.422Z,13.43
2018-05-24T20:56:15.021Z,16.87
2018-05-24T20:58:42.673Z,12.63
2018-05-24T21:01:11.029Z,15.30
2018-05-24T21:03:38.632Z,13.07
2018-05-24T21:06:06.278Z,13.30
2018-05-24T21:08:34.652Z,14.90
2018-05-24T21:11:02.253Z,13.50
2018-05-24T21:13:29.883Z,13.67
2018-05-24T21:15:57.519Z,13.67
2018-05-24T21:18:25.119Z,14.23
2018-05-24T21:20:52.724Z,16.60
2018-05-24T21:23:20.284Z,16.13
2018-05-24T21:25:47.895Z,24.60
2018-05-24T21:28:15.476Z,18.67
2018-05-24T21:30:43.041Z,19.63
2018-05-24T21:33:10.645Z,18.93
2018-05-24T21:35:38.295Z,17.80
2018-05-24T21:38:05.903Z,19.00
2018-05-24T21:40:33.522Z,18.33
2018-05-24T21:43:01.188Z,21.23
2018-05-24T21:45:29.585Z,17.50
2018-05-24T21:47:57.238Z,17.13
2018-05-24T21:50:25.597Z,18.10
2018-05-24T21:52:54.086Z,19.83
2018-05-24T21:55:22.451Z,22.23
2018-05-24T21:57:50.065Z,18.53
2018-05-24T22:00:17.699Z,20.10
2018-05-24T22:02:46.092Z,19.73
2018-05-24T22:05:14.611Z,20.03
2018-05-24T22:07:42.242Z,21.57
2018-05-24T22:10:09.870Z,20.40
2018-05-24T22:12:37.469Z,20.13
2018-05-24T22:15:05.052Z,20.57
2018-05-24T22:17:32.685Z,19.10
2018-05-24T22:20:00.333Z,20.07
2018-05-24T22:22:27.934Z,20.10
2018-05-24T22:24:55.532Z,19.63
2018-05-24T22:27:23.187Z,20.03
2018-05-24T22:29:50.825Z,18.30
2018-05-24T22:32:18.448Z,18.10
2018-05-24T22:34:46.057Z,22.70
2018-05-24T22:37:13.666Z,19.40
2018-05-24T22:39:41.247Z,19.20
2018-05-24T22:42:08.845Z,18.90
2018-05-24T22:44:36.451Z,21.57
2018-05-24T22:47:04.113Z,18.50
2018-05-24T22:49:31.710Z,17.70
2018-05-24T22:51:59.331Z,20.40
2018-05-24T22:54:26.931Z,18.63
2018-05-24T22:56:54.539Z,18.03
2018-05-24T22:59:22.135Z,17.50
2018-05-24T23:01:49.784Z,19.37
2018-05-24T23:04:17.447Z,18.67
2018-05-24T23:06:45.057Z,19.67
2018-05-24T23:09:12.696Z,19.80
2018-05-24T23:11:40.272Z,18.60
2018-05-24T23:14:07.887Z,17.57
2018-05-24T23:16:35.513Z,17.70
2018-05-24T23:19:03.143Z,15.43
2018-05-24T23:21:30.755Z,17.80
2018-05-24T23:23:59.149Z,14.97
2018-05-24T23:26:26.741Z,15.40
2018-05-24T23:28:54.329Z,15.07
2018-05-24T23:31:21.990Z,20.33
2018-05-24T23:33:49.616Z,14.90
2018-05-24T23:36:17.865Z,16.83
2018-05-24T23:38:46.195Z,16.77
2018-05-24T23:41:13.854Z,15.60
2018-05-24T23:43:41.464Z,16.63
2018-05-24T23:46:09.818Z,15.30
2018-05-24T23:48:37.443Z,17.77
2018-05-24T23:51:05.055Z,16.20
2018-05-24T23:53:33.469Z,18.43
2018-05-24T23:56:01.138Z,16.20
2018-05-24T23:58:28.757Z,13.63
